Time;durP1;ratioP1;P1;durP2;ratioP2;P2;SDS_P1;SDS_P2;PMS_P1;PMS_P2;Temp;Humidity;BMP_temperature;BMP_pressure;BME280_temperature;BME280_humidity;BME280_pressure;Samples;Min_cycle;Max_cycle;Signal;HPM_P1;HPM_P2
2023/08/17 00:01:07;;;;;;;1.38;0.70;;;22.20;60.30;;;;;;6067158;23;20023;-63
2023/08/17 00:03:33;;;;;;;;;;;22.20;60.50;;;;;;6068430;23;20007;-63
2023/08/17 00:05:59;;;;;;;1.65;0.85;;;22.20;60.30;;;;;;6067184;23;19956;-62
2023/08/17 00:08:25;;;;;;;;;;;22.30;61.50;;;;;;6068263;23;20011;-63
2023/08/17 00:10:51;;;;;;;0.88;0.68;;;22.30;60.30;;;;;;6067265;23;20299;-63
2023/08/17 00:13:17;;;;;;;;;;;22.30;60.20;;;;;;6068315;23;20017;-62
2023/08/17 00:15:45;;;;;;;1.45;1.15;;;22.30;60.10;;;;;;6067087;23;19996;-62
2023/08/17 00:18:12;;;;;;;1.58;0.80;;;22.30;60.20;;;;;;6067410;23;20019;-63
2023/08/17 00:20:37;;;;;;;1.92;1.17;;;22.30;60.50;;;;;;6041353;23;20110;-62
2023/08/17 00:23:03;;;;;;;;;;;22.30;60.80;;;;;;6069028;23;20014;-62
2023/08/17 00:25:29;;;;;;;0.98;0.68;;;22.20;59.90;;;;;;6067026;23;19917;-63
2023/08/17 00:27:55;;;;;;;;;;;22.20;62.10;;;;;;6042822;23;20019;-63
2023/08/17 00:30:21;;;;;;;0.55;0.45;;;22.20;60.80;;;;;;6067108;23;19988;-63
2023/08/17 00:32:47;;;;;;;;;;;22.20;60.90;;;;;;6068683;23;20014;-63
2023/08/17 00:35:13;;;;;;;2.38;0.50;;;22.10;61.10;;;;;;6067007;23;20097;-62
2023/08/17 00:37:40;;;;;;;0.98;0.70;;;22.10;61.40;;;;;;6067885;23;20492;-63
2023/08/17 00:40:06;;;;;;;;;;;22.10;61.50;;;;;;6067796;23;20085;-63
2023/08/17 00:42:32;;;;;;;1.73;0.90;;;22.10;61.30;;;;;;6018497;23;19926;-63
2023/08/17 00:44:58;;;;;;;;;;;22.00;61.60;;;;;;6068012;23;20021;-63
2023/08/17 00:47:25;;;;;;;3.53;2.45;;;22.00;61.60;;;;;;6089504;23;19914;-62
2023/08/17 00:49:51;;;;;;;0.45;0.45;;;21.90;61.90;;;;;;6089781;23;20023;-63
2023/08/17 00:52:17;;;;;;;1.15;0.68;;;21.90;61.50;;;;;;6089197;23;20015;-63
2023/08/17 00:54:43;;;;;;;;;;;21.90;62.10;;;;;;6067925;23;20552;-62
2023/08/17 00:57:09;;;;;;;2.63;1.10;;;21.90;62.00;;;;;;6067100;23;20311;-63
2023/08/17 00:59:36;;;;;;;0.98;0.63;;;21.90;62.30;;;;;;6067211;23;20062;-62
2023/08/17 01:02:03;;;;;;;1.10;0.57;;;21.90;62.40;;;;;;6067075;23;20010;-62
2023/08/17 01:04:29;;;;;;;0.90;0.55;;;21.80;61.80;;;;;;6067244;23;20074;-63
2023/08/17 01:06:54;;;;;;;;;;;21.90;62.40;;;;;;6067663;23;20015;-62
2023/08/17 01:09:21;;;;;;;1.75;1.00;;;21.90;62.30;;;;;;6066953;23;19928;-63
2023/08/17 01:12:24;;;;;;;;;;;21.80;62.40;;;;;;6042084;23;20070;-62
2023/08/17 01:15:47;;;;;;;2.22;0.80;;;21.80;62.10;;;;;;6067272;23;19996;-62
2023/08/17 01:18:34;;;;;;;2.35;1.45;;;21.80;62.20;;;;;;6067034;23;20079;-63
2023/08/17 01:21:03;;;;;;;1.35;0.82;;;21.80;62.30;;;;;;6088728;23;20029;-62
2023/08/17 01:23:29;;;;;;;1.10;0.82;;;21.80;62.30;;;;;;6065568;23;20452;-63
2023/08/17 01:25:57;;;;;;;0.60;0.50;;;21.80;62.40;;;;;;6040907;23;20019;-62
2023/08/17 01:28:23;;;;;;;1.00;0.73;;;21.80;62.50;;;;;;6066992;23;20038;-62
2023/08/17 01:31:07;;;;;;;0.77;0.50;;;21.70;61.90;;;;;;6089051;23;20433;-63
2023/08/17 01:33:55;;;;;;;1.30;0.80;;;21.70;62.80;;;;;;6067105;23;20090;-62
2023/08/17 01:36:30;;;;;;;0.30;0.30;;;21.70;62.60;;;;;;6064786;23;20114;-62
2023/08/17 01:38:57;;;;;;;1.67;1.10;;;21.70;62.80;;;;;;6041679;23;20030;-63
2023/08/17 01:41:25;;;;;;;1.23;0.88;;;21.70;63.00;;;;;;6088812;23;20078;-62
2023/08/17 01:43:52;;;;;;;0.68;0.68;;;21.70;62.90;;;;;;6041872;23;20010;-62
2023/08/17 01:46:19;;;;;;;1.30;0.82;;;21.60;63.00;;;;;;6088732;23;20030;-62
2023/08/17 01:48:46;;;;;;;1.35;0.93;;;21.60;62.80;;;;;;6066754;23;20011;-62
2023/08/17 01:51:21;;;;;;;0.30;0.30;;;21.70;62.60;;;;;;6040728;23;20425;-63
2023/08/17 01:53:48;;;;;;;0.52;0.50;;;21.70;62.60;;;;;;6067307;23;20010;-63
2023/08/17 01:56:14;;;;;;;2.03;1.27;;;21.60;63.70;;;;;;6088791;23;20098;-63
2023/08/17 01:58:40;;;;;;;0.75;0.47;;;21.60;62.80;;;;;;6066838;23;20512;-63
2023/08/17 02:01:06;;;;;;;;;;;21.50;62.80;;;;;;6089246;23;20067;-62
2023/08/17 02:03:33;;;;;;;0.73;0.30;;;21.30;62.10;;;;;;6066817;23;20324;-62
2023/08/17 02:05:59;;;;;;;1.35;0.90;;;21.20;62.10;;;;;;6066087;23;20061;-62
2023/08/17 02:08:25;;;;;;;1.27;1.08;;;21.30;62.80;;;;;;6066544;23;20038;-62
2023/08/17 02:10:52;;;;;;;;;;;21.20;62.70;;;;;;6066698;23;20046;-63
2023/08/17 02:13:18;;;;;;;0.75;0.75;;;21.10;62.70;;;;;;6066650;23;19910;-63
2023/08/17 02:15:46;;;;;;;1.10;0.52;;;21.00;62.80;;;;;;6040732;23;20062;-62
2023/08/17 02:18:12;;;;;;;1.90;0.77;;;21.00;63.00;;;;;;6066554;23;20429;-63
2023/08/17 02:20:38;;;;;;;;;;;20.90;63.30;;;;;;6066213;23;20086;-63
2023/08/17 02:23:04;;;;;;;1.15;0.73;;;20.90;63.40;;;;;;6041266;23;20336;-63
2023/08/17 02:25:35;;;;;;;0.98;0.80;;;20.80;63.50;;;;;;6040479;23;20097;-63
2023/08/17 02:28:03;;;;;;;1.00;0.70;;;20.80;63.50;;;;;;6041054;23;20110;-63
2023/08/17 02:30:29;;;;;;;1.35;0.73;;;20.80;63.20;;;;;;6066226;23;20017;-63
2023/08/17 02:32:55;;;;;;;0.65;0.40;;;20.80;63.50;;;;;;6066433;23;20018;-63
2023/08/17 02:35:21;;;;;;;;;;;20.80;63.70;;;;;;6066471;23;20461;-62
2023/08/17 02:37:47;;;;;;;2.22;0.93;;;20.70;62.70;;;;;;6089351;23;19914;-62
2023/08/17 02:40:13;;;;;;;0.85;0.60;;;20.70;63.50;;;;;;6065677;23;20018;-62
2023/08/17 02:42:39;;;;;;;;;;;20.70;63.80;;;;;;6066950;23;20445;-62
2023/08/17 02:45:25;;;;;;;1.75;0.60;;;20.60;63.60;;;;;;6066334;23;19918;-63
2023/08/17 02:47:51;;;;;;;1.00;0.65;;;20.60;64.00;;;;;;6066881;23;20014;-62
2023/08/17 02:50:17;;;;;;;;;;;20.50;64.60;;;;;;6066554;23;20314;-63
2023/08/17 02:52:43;;;;;;;1.05;0.88;;;20.40;64.50;;;;;;6066936;23;19914;-63
2023/08/17 02:55:09;;;;;;;;;;;20.40;64.60;;;;;;6089224;23;20395;-62
2023/08/17 02:57:35;;;;;;;0.75;0.60;;;20.50;64.40;;;;;;6066797;23;19917;-62
2023/08/17 03:00:02;;;;;;;1.27;0.73;;;20.40;64.40;;;;;;6040728;23;20027;-62
2023/08/17 03:02:28;;;;;;;0.43;0.43;;;20.40;64.40;;;;;;6066512;23;20029;-63
2023/08/17 03:04:54;;;;;;;0.98;0.60;;;20.40;64.60;;;;;;6066296;23;20040;-62
2023/08/17 03:07:20;;;;;;;;;;;20.40;64.80;;;;;;6088962;23;20015;-62
2023/08/17 03:09:45;;;;;;;1.35;0.73;;;20.50;64.60;;;;;;6066405;23;19948;-62
2023/08/17 03:12:12;;;;;;;0.52;0.40;;;20.40;64.40;;;;;;6088437;23;20063;-62
2023/08/17 03:14:38;;;;;;;1.10;0.68;;;20.40;64.50;;;;;;6040841;23;20018;-62
2023/08/17 03:17:04;;;;;;;0.50;0.40;;;20.50;64.70;;;;;;6066282;23;20421;-62
2023/08/17 03:19:29;;;;;;;;;;;20.40;64.30;;;;;;6067135;23;20019;-62
2023/08/17 03:21:56;;;;;;;1.80;1.00;;;20.50;64.20;;;;;;6088099;23;19918;-62
2023/08/17 03:24:22;;;;;;;;;;;20.40;64.40;;;;;;6066881;23;20015;-62
2023/08/17 03:26:48;;;;;;;0.83;0.40;;;20.40;64.40;;;;;;6066120;23;19929;-63
2023/08/17 03:29:14;;;;;;;;;;;20.30;64.90;;;;;;6089356;23;20007;-63
2023/08/17 03:31:40;;;;;;;0.52;0.50;;;20.20;64.70;;;;;;6066053;23;20013;-62
2023/08/17 03:34:06;;;;;;;1.50;1.02;;;20.10;64.10;;;;;;6042623;23;20192;-62
2023/08/17 03:36:32;;;;;;;0.35;0.25;;;20.10;64.60;;;;;;6067652;23;20023;-63
2023/08/17 03:38:58;;;;;;;;;;;20.10;64.40;;;;;;6068724;23;20026;-63
2023/08/17 03:41:25;;;;;;;5.07;1.13;;;20.10;64.30;;;;;;6041877;23;19921;-62
2023/08/17 03:43:51;;;;;;;2.30;0.82;;;19.90;64.20;;;;;;6042723;23;20066;-62
2023/08/17 03:46:17;;;;;;;1.60;0.75;;;20.00;64.50;;;;;;6089739;23;20023;-62
2023/08/17 03:48:43;;;;;;;;;;;20.00;64.60;;;;;;6068519;23;20066;-62
2023/08/17 03:51:09;;;;;;;0.57;0.57;;;20.00;64.40;;;;;;6067593;23;20320;-62
2023/08/17 03:53:34;;;;;;;;;;;20.00;64.50;;;;;;6068501;23;20386;-63
2023/08/17 03:56:00;;;;;;;1.23;0.77;;;19.90;64.50;;;;;;6089877;23;20012;-63
2023/08/17 03:58:29;;;;;;;;;;;19.90;64.60;;;;;;6043074;23;20015;-62
2023/08/17 04:00:55;;;;;;;2.95;1.63;;;19.90;64.50;;;;;;6067184;23;19925;-63
2023/08/17 04:03:21;;;;;;;0.28;0.28;;;19.80;64.80;;;;;;6068124;23;20071;-62
2023/08/17 04:05:47;;;;;;;1.35;1.20;;;19.90;64.90;;;;;;6067243;23;20011;-62
2023/08/17 04:08:13;;;;;;;;;;;19.90;64.90;;;;;;6068339;23;20086;-62
2023/08/17 04:10:40;;;;;;;0.82;0.70;;;19.90;64.80;;;;;;6067172;23;20311;-63
2023/08/17 04:13:06;;;;;;;2.20;0.50;;;19.80;64.30;;;;;;6042608;23;20035;-62
2023/08/17 04:15:32;;;;;;;0.63;0.63;;;19.90;65.00;;;;;;6067059;23;20488;-62
2023/08/17 04:17:57;;;;;;;2.30;1.27;;;20.00;65.10;;;;;;6090155;23;20426;-63
2023/08/17 04:20:25;;;;;;;1.98;1.02;;;20.00;65.00;;;;;;6067034;23;20029;-62
2023/08/17 04:22:51;;;;;;;0.85;0.55;;;20.00;65.10;;;;;;6068090;23;20056;-62
2023/08/17 04:25:17;;;;;;;1.20;0.90;;;20.00;65.10;;;;;;6041829;23;20011;-62
2023/08/17 04:27:43;;;;;;;;;;;20.00;65.20;;;;;;6090994;23;20443;-63
2023/08/17 04:30:10;;;;;;;0.47;0.40;;;20.10;65.10;;;;;;6066998;23;19953;-63
2023/08/17 04:32:36;;;;;;;0.90;0.73;;;20.10;65.20;;;;;;6067932;23;20030;-62
2023/08/17 04:35:02;;;;;;;1.17;0.70;;;20.10;65.30;;;;;;6067476;23;20018;-62
2023/08/17 04:37:28;;;;;;;;;;;20.20;65.30;;;;;;6042615;23;20110;-63
2023/08/17 04:39:54;;;;;;;2.25;1.38;;;20.20;65.10;;;;;;6089976;23;19957;-62
2023/08/17 04:42:20;;;;;;;;;;;20.20;65.20;;;;;;6068025;23;20023;-62
2023/08/17 04:44:46;;;;;;;2.63;1.63;;;20.20;65.30;;;;;;6089857;23;20264;-63
2023/08/17 04:47:12;;;;;;;0.40;0.40;;;20.20;66.40;;;;;;6067328;23;20314;-62
2023/08/17 04:49:38;;;;;;;1.13;0.80;;;20.20;65.60;;;;;;6067285;23;20014;-63
2023/08/17 04:52:04;;;;;;;1.23;0.80;;;20.20;65.80;;;;;;6067268;23;20049;-62
2023/08/17 04:54:30;;;;;;;1.02;0.50;;;20.30;66.00;;;;;;6089521;23;20134;-62
2023/08/17 04:56:56;;;;;;;0.40;0.32;;;20.30;66.00;;;;;;6067238;23;20330;-62
2023/08/17 04:59:22;;;;;;;;;;;20.30;65.90;;;;;;6090474;23;20011;-63
2023/08/17 05:01:48;;;;;;;0.80;0.80;;;20.40;65.80;;;;;;6065146;23;19989;-62
2023/08/17 05:04:14;;;;;;;0.98;0.52;;;20.40;66.10;;;;;;6041738;23;20011;-62
2023/08/17 05:06:40;;;;;;;0.40;0.40;;;20.40;66.10;;;;;;6066406;23;20034;-63
2023/08/17 05:09:06;;;;;;;;;;;20.50;66.30;;;;;;6067861;23;20011;-62
2023/08/17 05:11:32;;;;;;;2.13;1.10;;;20.50;66.10;;;;;;6088986;23;19918;-63
2023/08/17 05:13:58;;;;;;;;;;;20.60;66.10;;;;;;6042694;23;20096;-62
2023/08/17 05:16:24;;;;;;;1.13;0.30;;;20.60;66.10;;;;;;6066846;23;19925;-62
2023/08/17 05:18:50;;;;;;;1.23;0.90;;;20.60;66.10;;;;;;6089569;23;20434;-63
2023/08/17 05:21:16;;;;;;;0.65;0.55;;;20.70;66.20;;;;;;6066444;23;20432;-62
2023/08/17 05:23:42;;;;;;;;;;;20.80;66.50;;;;;;6090268;23;20010;-63
2023/08/17 05:26:08;;;;;;;0.47;0.38;;;20.80;66.00;;;;;;6088984;23;19997;-63
2023/08/17 05:28:34;;;;;;;;;;;20.80;66.30;;;;;;6090130;23;20007;-63
2023/08/17 05:31:20;;;;;;;0.90;0.68;;;20.80;66.30;;;;;;6066555;23;20001;-62
2023/08/17 05:33:46;;;;;;;2.05;1.42;;;20.80;66.50;;;;;;6089576;23;20006;-62
2023/08/17 05:36:13;;;;;;;2.05;1.23;;;20.80;66.40;;;;;;6066066;23;20019;-62
2023/08/17 05:38:39;;;;;;;0.95;0.85;;;20.90;66.30;;;;;;6066997;23;20007;-63
2023/08/17 05:41:05;;;;;;;;;;;20.90;66.20;;;;;;6067012;23;20026;-63
2023/08/17 05:43:31;;;;;;;0.70;0.40;;;21.00;66.00;;;;;;6066961;23;19920;-62
2023/08/17 05:46:15;;;;;;;5.20;0.85;;;21.00;66.00;;;;;;6041021;23;20018;-63
2023/08/17 05:48:41;;;;;;;1.85;0.85;;;21.10;66.00;;;;;;6066845;23;20019;-62
2023/08/17 05:51:07;;;;;;;;;;;21.20;66.10;;;;;;6066886;23;20314;-63
2023/08/17 05:53:33;;;;;;;0.85;0.68;;;21.30;66.00;;;;;;6066656;23;19944;-62
2023/08/17 05:55:59;;;;;;;1.55;0.82;;;21.20;66.00;;;;;;6065914;23;20011;-62
2023/08/17 05:58:25;;;;;;;;;;;21.30;66.10;;;;;;6067338;23;20015;-62
2023/08/17 06:00:51;;;;;;;2.15;1.48;;;21.40;66.00;;;;;;6066082;23;19956;-62
2023/08/17 06:03:17;;;;;;;;;;;21.50;65.70;;;;;;6067338;23;20021;-63
2023/08/17 06:05:43;;;;;;;3.05;1.27;;;21.60;65.90;;;;;;6065641;23;19913;-63
2023/08/17 06:08:09;;;;;;;;;;;21.60;65.80;;;;;;6041848;23;20011;-62
2023/08/17 06:10:35;;;;;;;0.60;0.43;;;21.60;65.90;;;;;;6088447;23;20289;-63
2023/08/17 06:13:01;;;;;;;1.40;0.90;;;21.70;66.40;;;;;;6066706;23;20034;-62
2023/08/17 06:15:27;;;;;;;;;;;21.70;67.10;;;;;;6041293;23;20027;-63
2023/08/17 06:17:53;;;;;;;1.50;1.00;;;21.70;67.10;;;;;;6041386;23;19992;-63
2023/08/17 06:20:19;;;;;;;;;;;21.80;66.80;;;;;;6066469;23;20019;-62
2023/08/17 06:22:48;;;;;;;1.48;0.80;;;21.90;66.70;;;;;;6067018;23;19924;-62
2023/08/17 06:25:14;;;;;;;2.00;1.27;;;22.00;66.00;;;;;;6040711;23;20010;-63
2023/08/17 06:27:41;;;;;;;;;;;22.20;65.70;;;;;;6089845;23;20074;-62
2023/08/17 06:30:08;;;;;;;0.57;0.50;;;22.30;65.30;;;;;;6066075;23;20222;-62
2023/08/17 06:32:34;;;;;;;2.33;1.05;;;22.40;64.70;;;;;;6067003;23;20043;-62
2023/08/17 06:35:00;;;;;;;;;;;22.50;65.00;;;;;;6067237;23;20230;-62
2023/08/17 06:37:26;;;;;;;1.33;0.85;;;22.60;64.70;;;;;;6040492;23;19953;-63
2023/08/17 06:39:52;;;;;;;0.90;0.90;;;22.70;64.70;;;;;;6089057;23;20010;-63
2023/08/17 06:42:18;;;;;;;;;;;22.80;64.40;;;;;;6066889;23;20074;-63
2023/08/17 06:44:44;;;;;;;1.20;0.88;;;22.90;64.70;;;;;;6064819;23;19917;-62
2023/08/17 06:47:10;;;;;;;1.02;0.80;;;23.00;63.80;;;;;;6066142;23;20030;-63
2023/08/17 06:49:36;;;;;;;;;;;23.10;63.80;;;;;;6067059;23;20015;-63
2023/08/17 06:52:02;;;;;;;1.17;0.85;;;23.20;63.60;;;;;;6066291;23;19965;-63
2023/08/17 06:54:28;;;;;;;0.30;0.30;;;23.30;63.40;;;;;;6066337;23;20021;-63
2023/08/17 06:56:54;;;;;;;;;;;23.40;62.90;;;;;;6066816;23;20041;-63
2023/08/17 06:59:20;;;;;;;0.85;0.60;;;23.50;62.90;;;;;;6017489;23;19992;-63
2023/08/17 07:01:46;;;;;;;3.92;0.98;;;23.70;62.20;;;;;;6066085;23;20019;-63
2023/08/17 07:04:11;;;;;;;;;;;24.00;61.70;;;;;;6067105;23;20034;-62
2023/08/17 07:06:37;;;;;;;2.70;1.77;;;24.20;62.00;;;;;;6066055;23;19964;-63
2023/08/17 07:09:04;;;;;;;;;;;24.40;60.70;;;;;;6091555;23;20011;-63
2023/08/17 07:11:31;;;;;;;1.35;1.17;;;24.70;61.10;;;;;;6090080;23;19921;-63
2023/08/17 07:13:57;;;;;;;2.05;1.42;;;24.90;59.00;;;;;;6068334;23;20011;-63
2023/08/17 07:16:23;;;;;;;1.25;0.80;;;25.20;59.10;;;;;;6067726;23;20043;-63
2023/08/17 07:18:49;;;;;;;0.98;0.65;;;25.50;58.80;;;;;;6068152;23;20006;-63
2023/08/17 07:21:15;;;;;;;1.23;0.77;;;25.60;56.90;;;;;;6067577;23;20337;-63
2023/08/17 07:23:45;;;;;;;0.47;0.47;;;26.00;56.90;;;;;;6068223;23;20010;-63
2023/08/17 07:26:11;;;;;;;1.27;0.95;;;26.40;56.10;;;;;;6042188;23;20023;-63
2023/08/17 07:28:37;;;;;;;1.83;1.23;;;26.50;55.00;;;;;;6068195;23;20345;-64
2023/08/17 07:31:05;;;;;;;1.48;0.80;;;26.70;55.00;;;;;;6067526;23;20018;-62
2023/08/17 07:33:31;;;;;;;1.73;1.35;;;27.10;55.20;;;;;;6043232;23;20142;-63
2023/08/17 07:35:58;;;;;;;0.77;0.75;;;27.50;53.70;;;;;;6067424;23;20102;-63
2023/08/17 07:38:24;;;;;;;1.35;1.20;;;27.90;53.40;;;;;;6067974;23;20441;-63
2023/08/17 07:40:50;;;;;;;0.73;0.70;;;28.20;52.90;;;;;;6087434;23;20442;-63
2023/08/17 07:43:16;;;;;;;1.27;0.93;;;28.50;52.40;;;;;;6061216;23;20011;-63
2023/08/17 07:45:42;;;;;;;1.13;0.80;;;28.70;50.70;;;;;;6060312;23;20018;-64
2023/08/17 07:48:08;;;;;;;1.52;0.95;;;29.00;50.80;;;;;;6059919;23;20039;-64
2023/08/17 07:50:34;;;;;;;1.58;1.25;;;29.40;49.90;;;;;;6033993;23;20017;-63
2023/08/17 07:53:00;;;;;;;1.92;1.38;;;29.80;49.50;;;;;;6060447;23;20007;-65
2023/08/17 07:55:27;;;;;;;1.67;1.02;;;30.30;48.70;;;;;;6059689;23;20025;-63
2023/08/17 07:57:53;;;;;;;1.42;1.05;;;30.70;47.40;;;;;;6059457;23;20053;-64
2023/08/17 08:00:19;;;;;;;1.75;1.13;;;31.10;44.50;;;;;;6059097;23;20019;-64
2023/08/17 08:02:46;;;;;;;2.30;1.40;;;31.40;44.30;;;;;;6060480;23;20342;-64
2023/08/17 08:05:14;;;;;;;1.00;0.75;;;31.70;42.50;;;;;;6081832;23;20441;-64
2023/08/17 08:07:40;;;;;;;2.05;1.40;;;32.10;42.80;;;;;;6056816;23;20046;-67
2023/08/17 08:10:07;;;;;;;0.70;0.60;;;32.50;41.90;;;;;;6059071;23;20014;-66
2023/08/17 08:12:34;;;;;;;4.53;2.33;;;32.90;40.30;;;;;;6058794;23;20019;-67
2023/08/17 08:15:00;;;;;;;0.95;0.68;;;33.50;40.40;;;;;;6056649;23;20026;-66
2023/08/17 08:17:26;;;;;;;1.75;1.58;;;34.10;39.80;;;;;;6056591;23;20019;-66
2023/08/17 08:19:53;;;;;;;2.38;1.13;;;34.60;37.80;;;;;;6058983;23;20467;-67
2023/08/17 08:22:19;;;;;;;1.70;1.05;;;35.00;37.40;;;;;;6055568;23;20046;-66
2023/08/17 08:24:45;;;;;;;2.28;0.90;;;35.40;36.50;;;;;;6055476;23;20208;-66
2023/08/17 08:27:11;;;;;;;1.70;1.35;;;35.90;35.00;;;;;;6057473;23;20022;-67
2023/08/17 08:29:37;;;;;;;2.75;1.25;;;36.40;32.90;;;;;;6056195;23;20022;-67
2023/08/17 08:32:04;;;;;;;1.17;0.60;;;36.70;32.90;;;;;;6057266;23;20015;-67
2023/08/17 08:34:30;;;;;;;1.77;1.20;;;37.20;31.80;;;;;;6055338;23;20026;-67
2023/08/17 08:36:56;;;;;;;1.85;1.15;;;37.70;31.10;;;;;;6055932;23;20436;-68
2023/08/17 08:39:22;;;;;;;0.88;0.75;;;37.90;29.50;;;;;;6057057;23;20074;-68
2023/08/17 08:41:48;;;;;;;1.73;1.38;;;38.20;29.90;;;;;;6056285;23;20015;-66
2023/08/17 08:44:14;;;;;;;1.17;0.85;;;38.60;29.00;;;;;;6057368;23;20019;-68
2023/08/17 08:46:41;;;;;;;0.98;0.93;;;39.00;29.00;;;;;;6055299;23;20330;-67
2023/08/17 08:49:10;;;;;;;2.22;1.65;;;39.60;28.30;;;;;;6055611;23;20011;-66
2023/08/17 08:51:42;;;;;;;2.95;1.48;;;40.10;27.60;;;;;;6054933;23;20030;-66
2023/08/17 08:54:31;;;;;;;1.17;1.08;;;40.70;26.30;;;;;;6032311;23;20013;-68
2023/08/17 08:57:16;;;;;;;1.02;0.90;;;41.00;25.90;;;;;;6056912;23;20070;-68
2023/08/17 08:59:46;;;;;;;1.25;1.08;;;41.40;25.70;;;;;;6056637;23;20030;-67
2023/08/17 09:02:18;;;;;;;1.60;1.17;;;41.90;24.50;;;;;;6056033;23;20035;-66
2023/08/17 09:04:45;;;;;;;1.60;1.33;;;42.30;24.30;;;;;;6033237;23;20025;-67
2023/08/17 09:07:32;;;;;;;1.98;1.40;;;42.70;22.90;;;;;;6031980;23;20018;-68
2023/08/17 09:09:59;;;;;;;2.15;1.38;;;42.80;22.50;;;;;;6031773;23;20019;-66
2023/08/17 09:12:25;;;;;;;1.20;0.93;;;43.20;22.80;;;;;;6055182;23;20015;-67
2023/08/17 09:14:52;;;;;;;2.15;1.30;;;43.70;22.00;;;;;;6031589;23;20027;-68
2023/08/17 09:17:28;;;;;;;1.30;1.10;;;44.10;21.80;;;;;;6057170;23;20007;-66
2023/08/17 09:19:54;;;;;;;0.75;0.75;;;44.40;21.10;;;;;;5981143;23;1182785;-67
2023/08/17 09:22:25;;;;;;;1.98;1.42;;;44.80;20.70;;;;;;6032116;23;20030;-67
2023/08/17 09:24:51;;;;;;;2.13;1.75;;;45.10;20.30;;;;;;6031579;23;20037;-67
2023/08/17 09:27:18;;;;;;;1.65;1.55;;;45.60;19.30;;;;;;6057970;23;20462;-67
2023/08/17 09:29:45;;;;;;;1.58;1.45;;;46.10;18.90;;;;;;6058593;23;20041;-66
2023/08/17 09:32:14;;;;;;;1.63;1.38;;;46.10;18.70;;;;;;6059013;23;20029;-66
2023/08/17 09:35:20;;;;;;;1.52;1.42;;;46.20;19.10;;;;;;6033425;23;20087;-68
2023/08/17 09:37:48;;;;;;;0.95;0.90;;;46.60;18.80;;;;;;6058646;23;20400;-67
2023/08/17 09:40:15;;;;;;;1.80;1.50;;;47.10;18.70;;;;;;6057991;23;20349;-68
2023/08/17 09:42:41;;;;;;;1.58;1.10;;;47.50;18.60;;;;;;6059227;23;20191;-67
2023/08/17 09:45:08;;;;;;;2.30;1.80;;;47.60;17.00;;;;;;6058013;23;20022;-66
2023/08/17 09:47:35;;;;;;;1.83;1.63;;;47.70;17.30;;;;;;6058071;23;20337;-67
2023/08/17 09:50:01;;;;;;;2.78;2.20;;;48.20;17.60;;;;;;6056642;23;20015;-67
2023/08/17 09:52:27;;;;;;;1.63;1.30;;;48.60;17.00;;;;;;6056318;23;20428;-67
2023/08/17 09:54:54;;;;;;;2.45;1.98;;;48.70;16.40;;;;;;6058206;23;20441;-67
2023/08/17 09:57:20;;;;;;;2.30;1.90;;;48.90;16.20;;;;;;6058485;23;20492;-67
2023/08/17 09:59:46;;;;;;;1.88;1.50;;;49.40;15.70;;;;;;6057433;23;20026;-67
2023/08/17 10:02:31;;;;;;;5.28;2.05;;;49.70;15.50;;;;;;6058451;23;20014;-68
2023/08/17 10:04:58;;;;;;;1.60;1.50;;;50.00;15.60;;;;;;6056868;23;20390;-66
2023/08/17 10:07:31;;;;;;;1.35;1.25;;;50.30;15.00;;;;;;6055791;23;20326;-67
2023/08/17 10:10:03;;;;;;;2.20;1.80;;;50.70;14.50;;;;;;6056544;23;20516;-66
2023/08/17 10:12:38;;;;;;;2.08;1.88;;;50.90;14.10;;;;;;6057566;23;20049;-68
2023/08/17 10:15:08;;;;;;;3.13;2.70;;;50.90;13.90;;;;;;6031127;23;20057;-68
2023/08/17 10:17:56;;;;;;;2.83;2.42;;;51.30;13.10;;;;;;6031969;23;20029;-67
2023/08/17 10:20:24;;;;;;;3.33;3.00;;;51.30;13.90;;;;;;6055531;23;20105;-66
2023/08/17 10:23:19;;;;;;;2.63;2.42;;;51.80;13.70;;;;;;6055979;23;20027;-67
2023/08/17 10:25:45;;;;;;;2.72;2.00;;;51.80;13.50;;;;;;6055722;23;20402;-68
2023/08/17 10:28:12;;;;;;;2.80;2.50;;;51.80;13.30;;;;;;6055895;23;20023;-66
2023/08/17 10:30:39;;;;;;;2.10;1.88;;;51.90;13.10;;;;;;6054625;23;20029;-68
2023/08/17 10:33:06;;;;;;;2.08;1.88;;;52.20;13.30;;;;;;6057225;23;20029;-68
2023/08/17 10:35:34;;;;;;;1.85;1.67;;;52.20;13.50;;;;;;6054565;23;20614;-69
2023/08/17 10:38:02;;;;;;;2.83;2.50;;;52.40;13.30;;;;;;6056775;23;20062;-66
2023/08/17 10:40:35;;;;;;;3.13;2.80;;;52.30;13.40;;;;;;6054900;23;20022;-68
2023/08/17 10:43:01;;;;;;;2.83;2.53;;;52.10;12.90;;;;;;6031282;23;20026;-67
2023/08/17 10:45:50;;;;;;;2.83;2.50;;;52.00;12.80;;;;;;6057313;23;20022;-68
2023/08/17 10:48:16;;;;;;;2.95;2.65;;;52.20;13.40;;;;;;6057815;23;20090;-68
2023/08/17 10:51:00;;;;;;;2.30;2.10;;;52.60;13.10;;;;;;6057010;23;20019;-69
2023/08/17 10:53:27;;;;;;;4.15;2.88;;;53.10;13.00;;;;;;6058132;23;20378;-68
2023/08/17 10:55:58;;;;;;;3.35;2.40;;;53.40;12.60;;;;;;6055894;23;20015;-69
2023/08/17 10:58:25;;;;;;;2.67;2.25;;;53.60;12.50;;;;;;6057698;23;20019;-66
2023/08/17 11:00:56;;;;;;;2.72;2.00;;;53.10;12.90;;;;;;6057055;23;20093;-68
2023/08/17 11:03:23;;;;;;;2.63;2.42;;;53.30;12.40;;;;;;6058169;23;20464;-68
2023/08/17 11:06:09;;;;;;;2.40;2.20;;;53.60;12.20;;;;;;6057012;23;20011;-66
2023/08/17 11:08:43;;;;;;;3.42;2.85;;;53.50;12.60;;;;;;6060214;23;20014;-68
2023/08/17 11:11:30;;;;;;;4.38;3.97;;;53.90;12.30;;;;;;6034776;23;20045;-68
2023/08/17 11:13:57;;;;;;;3.17;2.80;;;54.70;12.40;;;;;;6010471;23;20011;-68
2023/08/17 11:16:24;;;;;;;3.67;3.33;;;54.90;11.00;;;;;;6058853;23;20049;-68
2023/08/17 11:18:50;;;;;;;3.25;2.88;;;54.70;11.70;;;;;;6058232;23;20341;-66
2023/08/17 11:21:17;;;;;;;3.38;3.08;;;54.40;11.30;;;;;;6033520;23;20042;-67
2023/08/17 11:23:44;;;;;;;3.88;3.47;;;55.10;12.10;;;;;;6034256;23;20007;-67
2023/08/17 11:26:10;;;;;;;3.88;3.30;;;55.30;11.70;;;;;;6057382;23;20356;-66
2023/08/17 11:28:38;;;;;;;5.45;4.35;;;55.30;11.60;;;;;;6056833;23;20029;-67
2023/08/17 11:31:06;;;;;;;3.70;3.13;;;54.80;11.20;;;;;;6057372;23;20023;-67
2023/08/17 11:33:35;;;;;;;3.90;3.20;;;55.00;11.90;;;;;;6034483;23;20078;-67
2023/08/17 11:36:05;;;;;;;4.13;3.72;;;55.40;11.30;;;;;;6033774;23;20109;-68
2023/08/17 11:38:34;;;;;;;3.63;3.33;;;55.60;11.10;;;;;;6033804;23;20026;-67
2023/08/17 11:41:02;;;;;;;4.50;4.10;;;55.50;11.20;;;;;;6032926;23;20070;-68
2023/08/17 11:43:30;;;;;;;3.97;3.67;;;55.90;10.90;;;;;;6056461;23;20089;-68
2023/08/17 11:45:56;;;;;;;4.80;4.30;;;56.00;11.00;;;;;;6055708;23;20434;-66
2023/08/17 11:48:25;;;;;;;4.10;3.67;;;56.20;11.20;;;;;;6056358;23;20015;-66
2023/08/17 11:50:52;;;;;;;4.30;3.90;;;56.80;10.80;;;;;;6057450;23;20027;-67
2023/08/17 11:53:19;;;;;;;4.38;3.08;;;56.60;10.80;;;;;;6057007;23;20631;-66
2023/08/17 11:55:45;;;;;;;4.10;3.70;;;54.40;11.80;;;;;;6059128;23;20019;-69
2023/08/17 11:58:11;;;;;;;3.60;3.30;;;52.40;12.30;;;;;;6058941;23;20078;-66
2023/08/17 12:00:42;;;;;;;2.80;2.50;;;51.50;13.00;;;;;;6059284;23;20066;-67
2023/08/17 12:03:08;;;;;;;3.40;3.10;;;52.60;12.80;;;;;;6034562;23;20089;-67
2023/08/17 12:05:35;;;;;;;3.80;3.08;;;53.80;12.20;;;;;;6057822;23;20011;-68
2023/08/17 12:08:01;;;;;;;3.90;3.15;;;54.70;11.40;;;;;;6060052;23;20015;-66
2023/08/17 12:10:46;;;;;;;3.42;2.97;;;53.70;12.10;;;;;;6057770;23;20007;-66
2023/08/17 12:13:13;;;;;;;3.05;2.75;;;52.60;12.90;;;;;;6059838;23;20023;-66
2023/08/17 12:15:39;;;;;;;3.30;2.58;;;51.10;13.70;;;;;;6059031;23;20433;-66
2023/08/17 12:18:06;;;;;;;2.85;2.53;;;50.40;13.80;;;;;;6058407;23;20089;-66
2023/08/17 12:21:09;;;;;;;3.08;2.60;;;51.60;13.40;;;;;;6057963;23;20050;-68
2023/08/17 12:23:36;;;;;;;2.80;2.40;;;53.00;12.90;;;;;;6059635;23;20094;-68
2023/08/17 12:26:02;;;;;;;2.80;2.50;;;53.80;12.60;;;;;;6059314;23;20259;-66
2023/08/17 12:28:28;;;;;;;2.65;2.20;;;54.70;11.90;;;;;;6059210;23;20033;-67
2023/08/17 12:31:13;;;;;;;2.70;2.47;;;54.40;11.30;;;;;;6058588;23;20011;-67
2023/08/17 12:33:39;;;;;;;6.50;2.95;;;54.50;11.40;;;;;;6059527;23;20019;-67
2023/08/17 12:36:06;;;;;;;2.05;1.85;;;53.10;12.60;;;;;;6058992;23;20070;-67
2023/08/17 12:38:32;;;;;;;2.47;2.20;;;51.90;12.50;;;;;;6033921;23;20523;-67
2023/08/17 12:40:58;;;;;;;3.95;1.73;;;52.00;13.50;;;;;;6058441;23;20330;-67
2023/08/17 12:43:24;;;;;;;2.72;2.30;;;50.60;13.90;;;;;;6059461;23;20014;-67
2023/08/17 12:45:51;;;;;;;2.97;2.47;;;49.00;14.90;;;;;;6033257;23;20031;-67
2023/08/17 12:48:17;;;;;;;1.73;1.60;;;48.10;15.90;;;;;;6059480;23;20018;-66
2023/08/17 12:50:43;;;;;;;2.13;1.92;;;47.30;16.00;;;;;;6059055;23;20042;-67
2023/08/17 12:53:09;;;;;;;2.17;1.95;;;46.90;16.40;;;;;;6059347;23;20022;-66
2023/08/17 12:55:35;;;;;;;2.10;1.90;;;48.60;15.80;;;;;;6058733;23;20545;-68
2023/08/17 12:58:02;;;;;;;1.70;1.55;;;50.10;14.70;;;;;;6034201;23;20062;-67
2023/08/17 13:00:28;;;;;;;2.10;1.90;;;50.80;14.30;;;;;;6057371;23;20022;-67
2023/08/17 13:02:54;;;;;;;2.30;1.92;;;51.10;14.30;;;;;;6033437;23;20449;-67
2023/08/17 13:05:20;;;;;;;2.15;1.95;;;52.10;14.00;;;;;;6058333;23;20345;-68